Time;durP1;ratioP1;P1;durP2;ratioP2;P2;SDS_P1;SDS_P2;PMS_P1;PMS_P2;Temp;Humidity;BMP_temperature;BMP_pressure;BME280_temperature;BME280_humidity;BME280_pressure;Samples;Min_cycle;Max_cycle;Signal;HPM_P1;HPM_P2
2021/03/02 00:00:50;;;;;;;4.55;4.03;;;;;;;7.69;53.67;101212.50;5034807;28;20080;-81
2021/03/02 00:03:16;;;;;;;4.55;3.45;;;;;;;6.98;53.99;101098.81;5035326;28;20108;-81
2021/03/02 00:05:44;;;;;;;5.00;4.47;;;;;;;7.03;53.87;101095.00;5038399;28;20033;-82
2021/03/02 00:08:10;;;;;;;5.28;4.25;;;;;;;6.96;53.69;101086.75;5017174;28;20026;-80
2021/03/02 00:10:39;;;;;;;6.32;3.75;;;;;;;7.75;53.90;101212.00;5034577;28;20029;-81
2021/03/02 00:13:04;;;;;;;4.72;3.60;;;;;;;7.92;53.69;101242.25;5034723;28;20028;-81
2021/03/02 00:15:30;;;;;;;5.50;3.95;;;;;;;7.39;53.30;101149.97;5017013;28;20395;-84
2021/03/02 00:17:58;;;;;;;4.93;4.10;;;;;;;7.04;53.32;101102.75;5034683;28;20035;-81
2021/03/02 00:20:24;;;;;;;6.68;4.53;;;;;;;7.92;53.67;101234.38;5034463;28;20046;-79
2021/03/02 00:23:05;;;;;;;4.80;3.73;;;;;;;7.92;53.62;101242.25;5020337;28;20025;-80
2021/03/02 00:25:34;;;;;;;4.38;3.67;;;;;;;7.91;53.41;101235.31;5020942;28;20036;-82
2021/03/02 00:28:04;;;;;;;5.50;4.67;;;;;;;7.38;53.71;101152.69;5038618;28;20053;-84
2021/03/02 00:30:29;;;;;;;4.57;4.10;;;;;;;7.92;53.38;101243.09;5038384;28;20428;-80
2021/03/02 00:32:58;;;;;;;4.45;3.72;;;;;;;7.74;53.74;101206.88;5038500;28;20075;-81
2021/03/02 00:35:24;;;;;;;4.35;3.67;;;;;;;7.87;53.90;101224.22;5038262;28;20030;-81
2021/03/02 00:37:49;;;;;;;4.78;3.90;;;;;;;7.94;53.65;101240.34;5038309;28;20036;-80
2021/03/02 00:40:16;;;;;;;4.78;3.70;;;;;;;7.92;53.75;101244.88;5038272;28;20017;-82
2021/03/02 00:42:42;;;;;;;4.93;3.70;;;;;;;7.23;53.45;101116.16;5038314;28;20053;-80
2021/03/02 00:45:08;;;;;;;4.47;3.63;;;;;;;7.60;53.91;101181.66;5038242;28;20053;-81
2021/03/02 00:47:34;;;;;;;5.18;3.95;;;;;;;7.93;53.88;101229.00;5037996;28;20181;-80
2021/03/02 00:49:59;;;;;;;4.35;3.75;;;;;;;7.91;53.56;101238.78;5038215;28;20025;-82
2021/03/02 00:52:24;;;;;;;4.65;3.55;;;;;;;7.28;54.24;101137.66;5037811;28;20035;-83
2021/03/02 00:54:50;;;;;;;3.45;2.92;;;;;;;7.79;53.73;101241.53;5038071;28;20152;-81
2021/03/02 00:57:15;;;;;;;5.72;3.90;;;;;;;7.78;54.01;101232.81;5020295;28;20033;-81
2021/03/02 00:59:41;;;;;;;4.40;3.53;;;;;;;7.78;54.38;101230.19;5038100;28;20040;-80
2021/03/02 01:02:06;;;;;;;3.53;2.97;;;;;;;7.29;54.38;101143.75;5037976;28;20057;-81
2021/03/02 01:04:31;;;;;;;3.60;3.00;;;;;;;7.54;53.64;101204.00;5037723;28;20067;-84
2021/03/02 01:06:57;;;;;;;3.40;2.88;;;;;;;7.40;53.94;101175.28;5020274;28;20033;-83
2021/03/02 01:09:22;;;;;;;3.42;3.08;;;;;;;7.39;54.06;101168.34;5020604;28;20021;-83
2021/03/02 01:11:48;;;;;;;3.23;2.60;;;;;;;7.24;53.70;101145.88;5024184;28;20428;-81
2021/03/02 01:14:14;;;;;;;3.72;2.80;;;;;;;7.29;53.60;101146.38;5037747;28;20424;-84
2021/03/02 01:16:40;;;;;;;3.13;2.83;;;;;;;7.12;53.39;101120.56;5037748;28;20104;-82
2021/03/02 01:19:05;;;;;;;2.65;2.45;;;;;;;7.39;53.69;101185.91;5037651;28;20455;-81
2021/03/02 01:21:31;;;;;;;2.80;2.35;;;;;;;7.18;54.23;101131.44;5037465;28;20033;-80
2021/03/02 01:23:56;;;;;;;3.17;2.42;;;;;;;7.75;54.04;101224.31;5037486;28;20033;-84
2021/03/02 01:26:21;;;;;;;3.03;2.50;;;;;;;7.72;54.00;101221.94;5037367;28;20112;-81
2021/03/02 01:28:47;;;;;;;3.25;2.20;;;;;;;7.76;53.40;101228.63;5037510;28;20100;-81
2021/03/02 01:31:12;;;;;;;3.15;2.40;;;;;;;7.52;54.13;101181.41;5037438;28;20443;-82
2021/03/02 01:33:38;;;;;;;2.38;2.17;;;;;;;7.65;54.28;101214.53;5036474;28;20029;-82
2021/03/02 01:36:03;;;;;;;3.08;2.72;;;;;;;7.39;54.24;101186.75;5037455;28;20163;-80
2021/03/02 01:38:29;;;;;;;3.08;2.47;;;;;;;7.49;53.70;101194.78;5037270;28;20420;-81
2021/03/02 01:40:54;;;;;;;3.00;2.63;;;;;;;7.66;53.79;101215.34;5037262;28;20475;-84
2021/03/02 01:43:19;;;;;;;2.97;2.30;;;;;;;7.68;53.97;101218.69;5037094;28;20025;-84
2021/03/02 01:45:45;;;;;;;3.45;2.42;;;;;;;7.36;53.81;101165.13;5019511;28;20112;-84
2021/03/02 01:48:11;;;;;;;3.65;2.95;;;;;;;7.32;54.38;101175.03;5037084;28;20045;-85
2021/03/02 01:50:37;;;;;;;3.95;3.13;;;;;;;7.30;53.90;101153.28;5019400;28;20036;-84
2021/03/02 01:53:03;;;;;;;3.40;2.63;;;;;;;7.36;54.25;101181.72;5037005;28;20087;-81
2021/03/02 01:55:28;;;;;;;3.05;2.30;;;;;;;7.67;54.50;101218.81;5036612;28;20034;-84
2021/03/02 01:57:54;;;;;;;2.92;2.50;;;;;;;7.21;53.82;101157.47;5019407;28;20033;-84
2021/03/02 02:00:30;;;;;;;3.63;2.97;;;;;;;7.34;54.38;101184.47;5036773;28;20420;-84
2021/03/02 02:03:04;;;;;;;4.00;2.50;;;;;;;7.30;53.97;101174.31;5036947;28;20029;-82
2021/03/02 02:05:36;;;;;;;2.63;2.20;;;;;;;7.10;53.95;101136.44;5019166;28;20384;-82
2021/03/02 02:08:04;;;;;;;;;;;;;;;7.59;54.75;101230.75;5038003;28;20064;-83
2021/03/02 02:10:39;;;;;;;4.40;2.47;;;;;;;6.92;54.04;101120.28;5041079;28;19967;-82
2021/03/02 02:13:08;;;;;;;3.42;2.50;;;;;;;7.27;53.90;101164.03;5019139;28;20447;-80
2021/03/02 02:15:37;;;;;;;3.92;2.92;;;;;;;7.57;54.17;101213.44;5036423;28;20443;-80
2021/03/02 02:18:09;;;;;;;2.85;2.17;;;;;;;7.22;54.22;101145.16;5036536;28;20034;-82
2021/03/02 02:20:35;;;;;;;3.13;2.35;;;;;;;7.74;54.55;101230.53;5036633;28;20463;-82
2021/03/02 02:23:16;;;;;;;2.63;2.20;;;;;;;7.23;54.30;101158.19;5036503;28;20021;-80
2021/03/02 02:25:50;;;;;;;2.20;2.00;;;;;;;7.67;54.08;101227.53;5018805;28;20025;-82
2021/03/02 02:28:19;;;;;;;2.50;2.10;;;;;;;7.17;54.03;101152.56;5036431;28;20037;-85
2021/03/02 02:30:55;;;;;;;4.03;2.63;;;;;;;7.56;54.47;101217.03;5036549;28;20029;-81
2021/03/02 02:33:21;;;;;;;2.50;2.30;;;;;;;7.29;54.59;101175.25;5036129;28;20068;-81
2021/03/02 02:35:49;;;;;;;2.53;2.17;;;;;;;7.50;54.21;101222.75;5036195;28;20340;-81
2021/03/02 02:38:17;;;;;;;5.25;2.70;;;;;;;7.16;54.12;101162.22;5036152;28;20025;-81
2021/03/02 02:40:44;;;;;;;2.95;2.38;;;;;;;7.23;54.53;101171.31;5018606;28;20030;-83
2021/03/02 02:43:10;;;;;;;3.78;2.03;;;;;;;6.97;54.12;101130.44;5036076;28;20108;-84
2021/03/02 02:45:36;;;;;;;3.78;2.40;;;;;;;7.68;54.53;101231.00;5017640;28;20458;-82
2021/03/02 02:48:03;;;;;;;2.83;2.17;;;;;;;7.59;53.91;101230.75;5035797;28;20156;-83
2021/03/02 02:50:29;;;;;;;2.47;2.25;;;;;;;7.67;54.47;101237.22;5018309;28;20083;-83
2021/03/02 02:52:56;;;;;;;3.22;2.42;;;;;;;7.04;54.43;101150.03;5035958;28;20108;-84
2021/03/02 02:55:34;;;;;;;2.17;1.98;;;;;;;7.62;54.42;101245.47;5035687;28;20034;-83
2021/03/02 02:58:02;;;;;;;5.05;3.10;;;;;;;7.64;54.23;101248.81;5035860;28;20076;-83
2021/03/02 03:00:28;;;;;;;4.22;2.55;;;;;;;7.31;54.08;101199.63;5018010;28;20059;-83
2021/03/02 03:02:55;;;;;;;3.58;2.88;;;;;;;6.85;54.45;101123.47;5035682;28;20367;-83
2021/03/02 03:05:24;;;;;;;3.75;2.90;;;;;;;7.48;54.15;101227.28;5035800;28;20312;-83
2021/03/02 03:08:07;;;;;;;4.32;3.03;;;;;;;7.69;54.75;101280.00;5035764;28;20025;-83
2021/03/02 03:10:34;;;;;;;3.65;2.78;;;;;;;7.66;54.41;101257.41;5018247;28;20025;-84
2021/03/02 03:13:05;;;;;;;2.60;2.40;;;;;;;6.98;54.69;101153.94;5018259;28;20053;-84
2021/03/02 03:15:35;;;;;;;2.42;2.05;;;;;;;7.16;54.73;101185.03;5036769;28;20022;-84
2021/03/02 03:18:07;;;;;;;5.13;2.40;;;;;;;7.66;54.15;101262.69;5018524;28;20394;-83
2021/03/02 03:20:33;;;;;;;2.72;2.30;;;;;;;7.65;54.40;101264.47;5035314;28;20033;-82
2021/03/02 03:23:00;;;;;;;4.07;2.65;;;;;;;7.54;54.33;101238.16;5035510;28;20037;-82
2021/03/02 03:25:26;;;;;;;4.35;2.55;;;;;;;7.59;54.53;101262.31;5035276;28;20025;-83
2021/03/02 03:27:55;;;;;;;5.00;2.50;;;;;;;7.58;54.44;101252.75;5035127;28;20090;-81
2021/03/02 03:30:25;;;;;;;3.78;2.63;;;;;;;7.64;54.40;101262.78;5017595;28;20172;-82
2021/03/02 03:32:56;;;;;;;5.07;2.30;;;;;;;7.60;55.04;101268.41;5017621;28;20478;-82
2021/03/02 03:35:24;;;;;;;4.47;2.10;;;;;;;7.60;54.95;101269.25;5017401;28;20029;-81
2021/03/02 03:37:50;;;;;;;2.28;2.08;;;;;;;7.57;54.50;101269.47;5017645;28;20029;-81
2021/03/02 03:40:15;;;;;;;3.37;2.47;;;;;;;7.25;54.32;101213.22;5034945;28;20032;-81
2021/03/02 03:42:41;;;;;;;3.27;2.40;;;;;;;7.47;55.09;101249.25;5035009;28;20041;-82
2021/03/02 03:45:07;;;;;;;4.00;2.30;;;;;;;7.51;54.89;101295.38;5017584;28;20030;-82
2021/03/02 03:47:36;;;;;;;4.60;3.27;;;;;;;7.40;55.03;101269.03;5034783;28;20029;-80
2021/03/02 03:50:03;;;;;;;2.95;2.22;;;;;;;7.04;55.00;101217.47;5035008;28;20036;-82
2021/03/02 03:52:31;;;;;;;2.97;2.67;;;;;;;7.40;54.64;101272.50;5034840;28;20374;-83
2021/03/02 03:54:56;;;;;;;3.77;2.20;;;;;;;6.96;55.26;101204.91;5034514;28;20100;-84
2021/03/02 03:57:24;;;;;;;2.65;2.45;;;;;;;7.42;54.76;101273.22;5034665;28;20455;-80
2021/03/02 03:59:51;;;;;;;3.17;2.25;;;;;;;7.37;54.57;101264.84;5034813;28;20029;-82
2021/03/02 04:02:17;;;;;;;3.20;2.60;;;;;;;7.32;55.19;101259.09;5034868;28;20305;-80
2021/03/02 04:04:43;;;;;;;3.83;3.28;;;;;;;7.03;54.53;101221.06;5034542;28;20152;-81
2021/03/02 04:07:09;;;;;;;3.83;2.90;;;;;;;7.40;54.80;101283.03;5034835;28;20037;-83
2021/03/02 04:09:35;;;;;;;5.23;3.30;;;;;;;7.24;55.16;101258.84;5034527;28;20440;-82
2021/03/02 04:12:01;;;;;;;7.10;3.90;;;;;;;7.26;55.09;101242.00;5034722;28;20025;-81
2021/03/02 04:14:31;;;;;;;3.63;2.97;;;;;;;7.36;55.29;101260.56;5017096;28;20025;-79
2021/03/02 04:16:56;;;;;;;4.82;3.35;;;;;;;6.60;54.69;101135.78;5034629;28;20028;-82
2021/03/02 04:19:22;;;;;;;4.88;2.85;;;;;;;7.47;54.91;101276.38;5034527;28;20033;-84
2021/03/02 04:21:48;;;;;;;3.80;3.35;;;;;;;7.36;54.52;101254.47;5035374;28;20080;-80
2021/03/02 04:24:13;;;;;;;3.47;2.97;;;;;;;6.99;55.22;101192.38;5044994;28;20032;-81
2021/03/02 04:26:38;;;;;;;5.57;3.87;;;;;;;7.42;54.93;101265.34;5034997;28;20072;-84
2021/03/02 04:29:04;;;;;;;6.20;4.53;;;;;;;6.88;54.90;101175.75;5034686;28;20026;-84
2021/03/02 04:31:29;;;;;;;6.22;4.70;;;;;;;7.41;55.22;101265.47;5034641;28;20510;-85
2021/03/02 04:33:55;;;;;;;7.00;5.07;;;;;;;7.11;55.28;101237.91;5034542;28;20040;-82
2021/03/02 04:36:20;;;;;;;7.53;4.60;;;;;;;6.84;55.25;101188.28;5034304;28;20114;-81
2021/03/02 04:38:45;;;;;;;9.10;5.20;;;;;;;6.94;55.62;101209.44;5034580;28;20083;-83
2021/03/02 04:41:12;;;;;;;5.73;4.47;;;;;;;7.19;54.93;101247.84;5034341;28;20111;-81
2021/03/02 04:43:38;;;;;;;6.20;4.82;;;;;;;7.32;55.00;101275.72;5016730;28;20061;-81
2021/03/02 04:46:03;;;;;;;8.27;5.23;;;;;;;6.56;54.79;101151.88;5034429;28;20056;-80
2021/03/02 04:48:29;;;;;;;6.03;4.80;;;;;;;7.38;55.10;101276.19;5034213;28;20029;-83
2021/03/02 04:50:54;;;;;;;7.80;5.68;;;;;;;7.30;54.61;101267.09;5034359;28;20029;-86
2021/03/02 04:53:20;;;;;;;19.75;11.13;;;;;;;7.38;55.10;101284.91;5016704;28;20033;-82
2021/03/02 04:55:45;;;;;;;15.88;8.52;;;;;;;7.08;55.35;101229.41;5034238;28;20424;-85
2021/03/02 04:58:11;;;;;;;11.93;7.55;;;;;;;7.10;55.16;101219.63;5034094;28;20044;-83
2021/03/02 05:00:36;;;;;;;10.27;6.78;;;;;;;7.29;54.66;101269.84;5034219;28;20144;-85
2021/03/02 05:03:01;;;;;;;9.13;6.23;;;;;;;7.33;54.85;101271.28;5034213;28;20068;-81
2021/03/02 05:05:27;;;;;;;10.48;7.25;;;;;;;7.46;54.73;101297.53;5016815;28;20018;-83
2021/03/02 05:07:53;;;;;;;7.63;5.53;;;;;;;7.46;54.92;101287.00;5018249;28;20037;-82
2021/03/02 05:10:19;;;;;;;6.10;5.20;;;;;;;7.46;55.02;101285.22;5037821;28;20025;-85
2021/03/02 05:12:44;;;;;;;9.53;5.87;;;;;;;7.12;54.38;101236.13;5020310;28;20438;-84
2021/03/02 05:15:10;;;;;;;9.35;5.32;;;;;;;7.07;55.07;101246.13;5020154;28;20030;-83
2021/03/02 05:17:35;;;;;;;12.77;6.05;;;;;;;7.45;55.00;101290.59;5037770;28;20324;-83
2021/03/02 05:20:02;;;;;;;13.40;6.05;;;;;;;6.98;55.10;101218.75;5037914;28;20033;-86
2021/03/02 05:22:27;;;;;;;10.57;5.47;;;;;;;6.98;55.20;101203.84;5019996;28;20021;-84
2021/03/02 05:24:53;;;;;;;9.50;5.82;;;;;;;6.57;54.69;101140.44;5037532;28;20029;-81
2021/03/02 05:27:18;;;;;;;7.05;4.88;;;;;;;7.45;54.79;101282.69;5037547;28;20435;-82
2021/03/02 05:29:44;;;;;;;13.53;6.67;;;;;;;7.58;54.96;101296.59;5040179;28;20033;-81
2021/03/02 05:32:09;;;;;;;8.73;5.25;;;;;;;7.29;54.31;101254.09;5024842;28;20025;-82
2021/03/02 05:34:34;;;;;;;8.30;5.40;;;;;;;7.60;54.81;101294.69;5037595;28;20182;-85
2021/03/02 05:37:00;;;;;;;8.77;5.32;;;;;;;7.64;54.97;101296.13;5037620;28;20030;-83
2021/03/02 05:39:25;;;;;;;14.70;8.50;;;;;;;7.14;54.19;101215.81;5019751;28;20025;-81
2021/03/02 05:41:51;;;;;;;12.70;9.63;;;;;;;7.69;54.56;101315.03;5037428;28;20033;-83
2021/03/02 05:44:17;;;;;;;9.35;6.75;;;;;;;7.15;54.17;101199.13;5037287;28;20034;-85
2021/03/02 05:46:43;;;;;;;10.77;6.78;;;;;;;7.46;54.33;101271.25;5037117;28;20037;-83
2021/03/02 05:49:13;;;;;;;13.00;7.55;;;;;;;7.58;54.10;101286.09;5019754;28;20036;-81
2021/03/02 05:51:40;;;;;;;9.38;6.50;;;;;;;7.79;53.95;101309.91;5037010;28;20379;-85
2021/03/02 05:54:07;;;;;;;11.85;8.13;;;;;;;7.72;54.22;101311.31;5037055;28;20051;-86
2021/03/02 05:56:36;;;;;;;7.85;6.03;;;;;;;7.45;53.93;101275.66;5019408;28;20344;-82
2021/03/02 05:59:02;;;;;;;8.53;5.73;;;;;;;7.49;54.03;101282.34;5037121;28;20465;-81
2021/03/02 06:01:28;;;;;;;9.48;5.40;;;;;;;6.83;54.22;101152.47;5037002;28;20040;-83
2021/03/02 06:03:53;;;;;;;15.95;7.05;;;;;;;7.81;54.27;101295.69;5036623;28;20034;-79
2021/03/02 06:06:18;;;;;;;9.50;6.18;;;;;;;7.99;53.64;101322.38;5018843;28;20428;-79
2021/03/02 06:08:45;;;;;;;11.82;6.70;;;;;;;7.89;53.30;101305.63;5036567;28;20492;-84
2021/03/02 06:11:36;;;;;;;13.13;6.65;;;;;;;7.79;53.10;101275.72;5036924;28;20026;-82
2021/03/02 06:14:18;;;;;;;8.30;4.53;;;;;;;7.73;53.15;101263.88;5036635;28;20467;-82
2021/03/02 06:16:49;;;;;;;10.05;5.60;;;;;;;8.10;53.50;101319.75;5036757;28;20037;-82
2021/03/02 06:19:14;;;;;;;10.02;5.93;;;;;;;8.09;53.08;101312.81;5036847;28;20040;-81
2021/03/02 06:21:41;;;;;;;14.57;8.48;;;;;;;8.19;53.04;101318.22;5036586;28;20321;-81
2021/03/02 06:24:07;;;;;;;10.27;6.47;;;;;;;7.93;52.73;101286.00;5036565;28;20025;-79
2021/03/02 06:26:32;;;;;;;9.00;6.05;;;;;;;7.89;52.64;101290.66;5036389;28;20352;-78
2021/03/02 06:29:02;;;;;;;10.05;6.40;;;;;;;8.03;52.67;101322.97;5036422;28;20036;-76
2021/03/02 06:31:39;;;;;;;10.15;6.10;;;;;;;7.92;52.83;101308.00;5036322;28;20033;-79
2021/03/02 06:34:12;;;;;;;9.95;7.05;;;;;;;7.67;52.58;101253.00;5036227;28;20032;-77
2021/03/02 06:36:40;;;;;;;10.05;6.85;;;;;;;8.07;52.30;101319.97;5037628;28;20053;-77
2021/03/02 06:39:31;;;;;;;7.65;5.07;;;;;;;8.14;51.88;101321.19;5037686;28;20018;-77
2021/03/02 06:42:15;;;;;;;5.43;4.80;;;;;;;8.20;52.13;101317.25;5036442;28;20087;-78
2021/03/02 06:44:47;;;;;;;8.25;3.88;;;;;;;8.11;52.31;101292.47;5018605;28;20116;-78
2021/03/02 06:47:14;;;;;;;6.10;4.30;;;;;;;8.17;52.25;101294.63;5018573;28;20026;-76
2021/03/02 06:49:48;;;;;;;7.80;4.55;;;;;;;8.31;51.90;101319.91;5035997;28;20057;-78
2021/03/02 06:52:16;;;;;;;6.18;4.22;;;;;;;7.53;51.71;101186.56;5034777;28;20399;-76
2021/03/02 06:54:42;;;;;;;7.88;4.28;;;;;;;8.38;51.69;101307.13;5012777;28;20120;-80
2021/03/02 06:57:08;;;;;;;6.88;4.70;;;;;;;8.27;51.73;101285.09;5032308;28;20104;-80
2021/03/02 06:59:33;;;;;;;9.15;4.80;;;;;;;8.10;51.57;101248.72;5032954;28;20108;-79
2021/03/02 07:01:59;;;;;;;10.40;5.22;;;;;;;8.56;51.62;101318.84;5035726;28;20037;-80
2021/03/02 07:04:28;;;;;;;7.15;5.22;;;;;;;8.66;51.29;101309.25;5034849;28;20511;-82
2021/03/02 07:06:55;;;;;;;8.38;5.10;;;;;;;8.72;50.90;101311.38;5035070;28;20029;-77
2021/03/02 07:09:21;;;;;;;10.57;4.35;;;;;;;8.75;50.91;101312.94;5035342;28;20317;-78
2021/03/02 07:11:47;;;;;;;6.13;3.60;;;;;;;8.47;50.26;101261.66;5031947;28;20067;-77
2021/03/02 07:14:14;;;;;;;7.45;4.28;;;;;;;8.35;49.84;101223.16;5034361;28;20079;-79
2021/03/02 07:16:45;;;;;;;8.93;4.40;;;;;;;8.80;49.90;101294.97;5035290;28;20057;-77
2021/03/02 07:19:20;;;;;;;11.10;4.38;;;;;;;8.98;49.34;101313.75;5035785;28;20100;-79
2021/03/02 07:21:50;;;;;;;8.45;4.20;;;;;;;8.76;49.16;101264.56;5035330;28;20469;-79
2021/03/02 07:24:16;;;;;;;4.03;3.40;;;;;;;9.08;49.48;101312.03;5035074;28;20390;-76
2021/03/02 07:26:47;;;;;;;5.45;3.70;;;;;;;9.10;49.07;101326.75;5032898;28;20029;-77
2021/03/02 07:29:13;;;;;;;3.97;3.30;;;;;;;8.93;48.87;101279.03;5016911;28;20068;-79
2021/03/02 07:31:40;;;;;;;3.80;3.10;;;;;;;9.16;48.99;101313.09;5016986;28;20083;-77
2021/03/02 07:34:07;;;;;;;4.97;3.75;;;;;;;9.05;48.70;101275.41;5034063;28;20117;-77
2021/03/02 07:36:43;;;;;;;6.38;4.00;;;;;;;9.27;48.53;101301.66;5034014;28;20029;-76
2021/03/02 07:39:15;;;;;;;4.47;3.78;;;;;;;9.45;48.39;101299.28;5028129;28;20041;-76
2021/03/02 07:41:40;;;;;;;5.57;3.53;;;;;;;9.52;48.00;101293.38;5013896;28;20029;-78
2021/03/02 07:44:07;;;;;;;13.43;4.68;;;;;;;9.18;48.11;101234.72;5028806;28;20037;-77
2021/03/02 07:46:39;;;;;;;6.18;3.67;;;;;;;9.62;47.67;101290.81;5032503;28;20034;-78
2021/03/02 07:49:23;;;;;;;4.45;3.45;;;;;;;9.62;47.71;101292.59;5032800;28;20034;-76
2021/03/02 07:52:09;;;;;;;5.82;3.70;;;;;;;9.59;47.62;101287.59;5013976;28;20035;-78
2021/03/02 07:54:35;;;;;;;4.88;3.17;;;;;;;9.48;47.92;101286.69;5009932;28;20047;-79
2021/03/02 07:57:13;;;;;;;5.30;3.67;;;;;;;9.41;47.61;101285.53;5038883;28;20368;-78
2021/03/02 07:59:38;;;;;;;8.73;4.30;;;;;;;8.87;48.15;101199.53;5032560;28;20033;-77
2021/03/02 08:02:19;;;;;;;6.43;3.83;;;;;;;9.33;48.04;101284.50;5033107;28;20025;-78
2021/03/02 08:04:46;;;;;;;5.90;3.70;;;;;;;9.24;47.98;101283.47;5031402;28;20400;-76
2021/03/02 08:07:27;;;;;;;7.07;3.50;;;;;;;9.28;47.83;101292.78;5014503;28;20044;-76
2021/03/02 08:09:58;;;;;;;5.90;3.92;;;;;;;9.09;48.09;101261.00;5015722;28;20119;-77
2021/03/02 08:12:34;;;;;;;4.75;2.90;;;;;;;8.73;48.12;101201.63;5022330;28;20032;-77
2021/03/02 08:15:22;;;;;;;3.72;3.15;;;;;;;9.24;48.06;101267.66;5026506;28;20036;-76
2021/03/02 08:17:48;;;;;;;6.80;4.18;;;;;;;8.67;48.21;101166.09;5032881;28;20029;-76
2021/03/02 08:20:14;;;;;;;8.30;4.38;;;;;;;9.27;47.96;101246.31;5015894;28;20048;-76
2021/03/02 08:22:42;;;;;;;7.15;4.03;;;;;;;9.46;47.91;101270.16;5033815;28;20025;-76
2021/03/02 08:25:10;;;;;;;4.88;3.97;;;;;;;9.45;47.68;101251.84;5031463;28;20108;-77
2021/03/02 08:27:51;;;;;;;7.90;4.05;;;;;;;9.44;47.19;101258.06;5015324;28;20029;-77
2021/03/02 08:30:44;;;;;;;3.60;2.90;;;;;;;9.49;46.62;101269.91;5033964;28;20029;-76
2021/03/02 08:33:14;;;;;;;4.05;3.03;;;;;;;9.12;47.09;101210.69;5028758;28;20111;-76
2021/03/02 08:35:41;;;;;;;4.40;3.72;;;;;;;9.42;47.30;101257.38;5032136;28;20630;-80
2021/03/02 08:38:13;;;;;;;5.32;4.55;;;;;;;8.94;47.13;101172.69;5027531;28;20021;-76
2021/03/02 08:40:43;;;;;;;7.82;4.38;;;;;;;9.47;47.25;101252.53;5029080;28;20029;-78
2021/03/02 08:43:20;;;;;;;4.18;3.20;;;;;;;9.52;46.89;101266.19;5034852;28;20094;-75
2021/03/02 08:45:53;;;;;;;4.57;3.67;;;;;;;9.48;47.49;101267.41;5019140;28;20029;-78
2021/03/02 08:48:21;;;;;;;8.20;5.88;;;;;;;9.51;47.55;101275.03;5037856;28;20030;-80
2021/03/02 08:50:50;;;;;;;6.38;4.43;;;;;;;8.84;47.30;101160.25;5035328;28;20021;-79
2021/03/02 08:53:41;;;;;;;6.50;3.60;;;;;;;9.48;47.01;101270.88;5029774;28;20060;-75
2021/03/02 08:56:14;;;;;;;5.38;3.72;;;;;;;9.45;47.01;101268.50;5035652;28;20025;-80
2021/03/02 08:58:42;;;;;;;4.65;4.18;;;;;;;9.41;46.98;101264.44;5026195;28;20029;-78
2021/03/02 09:01:11;;;;;;;5.65;3.72;;;;;;;9.51;47.26;101267.13;5036152;28;20086;-80
2021/03/02 09:03:39;;;;;;;4.45;3.70;;;;;;;9.29;47.14;101247.00;5019681;28;20021;-80
2021/03/02 09:06:19;;;;;;;5.95;3.63;;;;;;;9.41;46.72;101250.41;5035885;28;20432;-82
2021/03/02 09:08:49;;;;;;;6.25;4.32;;;;;;;9.56;47.02;101270.22;5033638;28;20801;-75
2021/03/02 09:11:20;;;;;;;6.18;5.20;;;;;;;9.66;46.71;101267.66;5036098;28;20041;-79
2021/03/02 09:13:46;;;;;;;5.45;4.05;;;;;;;9.68;46.91;101268.38;5021221;28;20029;-80
2021/03/02 09:16:33;;;;;;;5.28;3.70;;;;;;;9.38;46.50;101237.50;5017575;28;20033;-80
2021/03/02 09:19:01;;;;;;;5.05;3.80;;;;;;;8.55;46.86;101106.56;5036189;28;20032;-80
2021/03/02 09:21:26;;;;;;;5.18;3.53;;;;;;;9.08;47.02;101201.38;5036374;28;20351;-77
2021/03/02 09:23:52;;;;;;;5.30;3.95;;;;;;;9.57;46.97;101272.72;5037188;28;20029;-80
2021/03/02 09:26:22;;;;;;;6.10;4.50;;;;;;;9.43;46.80;101220.31;5037029;28;20029;-77
2021/03/02 09:29:13;;;;;;;5.53;4.50;;;;;;;9.49;46.48;101230.34;5036463;28;20100;-78
2021/03/02 09:31:39;;;;;;;7.10;5.13;;;;;;;9.37;46.67;101197.13;5015115;28;20033;-77
2021/03/02 09:34:04;;;;;;;7.57;5.97;;;;;;;9.98;46.55;101254.38;5033146;28;20444;-76
2021/03/02 09:36:31;;;;;;;7.68;6.65;;;;;;;10.24;46.43;101260.88;5032931;28;20033;-78
2021/03/02 09:38:58;;;;;;;9.07;6.25;;;;;;;10.29;45.60;101220.88;5031541;28;20037;-75
2021/03/02 09:41:34;;;;;;;7.97;6.50;;;;;;;10.46;45.30;101223.75;5029189;28;20360;-79
2021/03/02 09:44:26;;;;;;;9.55;5.45;;;;;;;10.58;45.34;101247.38;5032159;28;20451;-76
2021/03/02 09:46:54;;;;;;;7.05;5.32;;;;;;;10.11;45.29;101167.88;5008999;28;20052;-77
2021/03/02 09:49:55;;;;;;;11.07;5.60;;;;;;;10.49;45.29;101215.53;5019087;28;20025;-79
2021/03/02 09:52:21;;;;;;;11.25;7.38;;;;;;;10.73;45.51;101240.72;5000244;28;20029;-77
2021/03/02 09:55:08;;;;;;;13.40;7.90;;;;;;;10.76;44.68;101251.03;5017460;28;20042;-78
2021/03/02 09:57:44;;;;;;;5.55;4.97;;;;;;;10.61;44.76;101232.09;5030344;28;20485;-78
2021/03/02 10:00:10;;;;;;;10.65;6.00;;;;;;;10.57;45.43;101225.44;5026609;28;20067;-80
2021/03/02 10:02:48;;;;;;;8.85;6.10;;;;;;;10.51;45.12;101220.69;5026161;28;20025;-77
2021/03/02 10:05:13;;;;;;;8.10;6.22;;;;;;;10.48;45.33;101235.00;5011268;28;20029;-75
2021/03/02 10:07:45;;;;;;;6.80;5.68;;;;;;;10.11;44.74;101191.63;5020091;28;20378;-75
2021/03/02 10:10:10;;;;;;;6.53;5.75;;;;;;;10.17;45.48;101215.69;5027663;28;20059;-76
2021/03/02 10:12:36;;;;;;;7.68;5.43;;;;;;;9.98;45.32;101181.31;5026835;28;20025;-75
2021/03/02 10:15:02;;;;;;;8.90;5.82;;;;;;;9.95;45.55;101194.78;5033683;28;20038;-77
2021/03/02 10:17:35;;;;;;;8.43;5.93;;;;;;;10.04;44.75;101211.63;5024515;28;20104;-79
2021/03/02 10:20:07;;;;;;;11.73;6.80;;;;;;;9.95;45.22;101207.13;5027393;28;20021;-78
2021/03/02 10:22:33;;;;;;;7.55;5.72;;;;;;;9.55;45.58;101147.25;5028886;28;20455;-80
2021/03/02 10:24:58;;;;;;;6.80;4.90;;;;;;;9.55;45.57;101163.06;5026544;28;20017;-78
2021/03/02 10:27:24;;;;;;;10.57;6.38;;;;;;;9.90;45.62;101228.66;5012611;28;20044;-79
2021/03/02 10:29:49;;;;;;;10.52;5.70;;;;;;;9.37;45.50;101139.13;5035585;28;20340;-76
2021/03/02 10:32:16;;;;;;;7.72;5.88;;;;;;;9.65;46.19;101178.94;5034967;28;20087;-77
2021/03/02 10:34:43;;;;;;;10.27;6.50;;;;;;;9.79;46.69;101216.38;5017701;28;20029;-79
2021/03/02 10:37:10;;;;;;;9.90;6.45;;;;;;;9.19;46.98;101124.88;5017564;28;20427;-77
2021/03/02 10:39:36;;;;;;;10.25;6.95;;;;;;;9.07;47.36;101107.47;5035428;28;20030;-78
2021/03/02 10:42:03;;;;;;;10.10;6.00;;;;;;;9.72;47.13;101215.25;5035558;28;20045;-81
2021/03/02 10:44:29;;;;;;;7.60;6.00;;;;;;;9.61;47.30;101186.28;5017696;28;20028;-81
2021/03/02 10:46:54;;;;;;;9.05;5.75;;;;;;;9.70;47.63;101203.16;5034885;28;20037;-81
2021/03/02 10:49:21;;;;;;;7.20;5.45;;;;;;;9.60;47.29;101170.59;5030126;28;20097;-77
2021/03/02 10:51:47;;;;;;;8.00;5.25;;;;;;;9.83;47.19;101201.13;5015468;28;20037;-82
2021/03/02 10:54:12;;;;;;;9.70;5.97;;;;;;;9.85;46.98;101178.91;5034147;28;20025;-75
2021/03/02 10:56:37;;;;;;;6.90;5.32;;;;;;;9.48;46.89;101103.94;5035004;28;20034;-80
2021/03/02 10:59:04;;;;;;;9.30;7.35;;;;;;;9.73;46.63;101121.13;5016781;28;20487;-77
2021/03/02 11:01:30;;;;;;;8.38;7.10;;;;;;;10.22;46.47;101166.97;5034772;28;20024;-81
2021/03/02 11:03:56;;;;;;;15.00;10.68;;;;;;;10.23;46.31;101145.72;5033990;28;20045;-82
2021/03/02 11:06:25;;;;;;;7.43;5.20;;;;;;;10.06;46.00;101135.78;5034154;28;20025;-79
2021/03/02 11:08:51;;;;;;;7.60;5.75;;;;;;;10.26;46.24;101153.34;5016308;28;20026;-80
2021/03/02 11:11:18;;;;;;;13.68;6.25;;;;;;;10.30;45.72;101148.63;5017525;28;20036;-78
2021/03/02 11:13:43;;;;;;;6.53;5.28;;;;;;;10.23;45.55;101115.84;5016465;28;20103;-77
2021/03/02 11:16:10;;;;;;;6.10;4.75;;;;;;;10.41;45.17;101127.41;5033709;28;20401;-80
2021/03/02 11:18:37;;;;;;;7.15;6.20;;;;;;;10.57;44.96;101135.63;5032787;28;20036;-78
2021/03/02 11:21:03;;;;;;;12.98;7.03;;;;;;;10.55;45.28;101137.56;5032685;28;20367;-77
2021/03/02 11:23:28;;;;;;;7.47;5.38;;;;;;;10.34;45.05;101078.75;5034227;28;20423;-78
2021/03/02 11:25:53;;;;;;;5.28;4.40;;;;;;;10.72;44.94;101128.13;5032700;28;20030;-79
2021/03/02 11:28:19;;;;;;;6.13;5.03;;;;;;;10.76;45.02;101114.47;5032366;28;20025;-77
2021/03/02 11:30:46;;;;;;;7.30;4.90;;;;;;;10.59;44.74;101074.75;5033927;28;20082;-76
2021/03/02 11:33:12;;;;;;;8.10;5.43;;;;;;;10.50;45.01;101055.28;5032157;28;20025;-79
2021/03/02 11:35:38;;;;;;;8.25;6.05;;;;;;;10.92;44.46;101116.53;5032968;28;20029;-77
2021/03/02 11:38:04;;;;;;;7.10;5.68;;;;;;;10.45;44.42;101050.44;5032486;28;20075;-77